Walnut Ridge, AR

2:24 PM CDT on July 22, 2017 (GMT -0500)
Walnut Ridge Regional

Weather History for KARG - February, 2014

Change the Weather History Date:

Wednesday, February 26, 2014

  Actual Average Record
Temperature  
Mean Temperature 29 °F -  
Max Temperature 35 °F 49 °F 71 °F (2009)
Min Temperature 23 °F 34 °F 21 °F (2003)
Degree Days  
Heating Degree Days 36    
Moisture  
Dew Point 7 °F    
Average Humidity 42    
Maximum Humidity 55    
Minimum Humidity 24    
Precipitation  
Precipitation 0.00 in - - ()
Sea Level Pressure  
Sea Level Pressure 30.20 in    
Wind  
Wind Speed 13 mph (NNW)    
Max Wind Speed 21 mph    
Max Gust Speed 26 mph    
Visibility 10 miles    
Events      
Averages and records for this station are not official NWS values.
T = Trace of Precipitation, MM = Missing Value Source: NWS Daily Summary

Daily Weather History Graph

Daily Weather History Graph

Search for Another Location

Airport or City:

Trip Planner

Search our weather history database for the weather conditions in past years. The results will help you decide how hot, cold, wet, or windy it might be!

Date:

Astronomy

Feb. 26, 2014 Rise Set
Actual Time 6:37 AM CST 5:55 PM CST
Civil Twilight 6:11 AM CST 6:21 PM CST
Nautical Twilight 5:42 AM CST 6:51 PM CST
Astronomical Twilight 5:12 AM CST 7:21 PM CST
Moon 4:20 AM CST (2/26) 3:14 PM CST (2/26)
Length of Visible Light 12h 09m
Length of Day
11h 17m
Waning Crescent, 10% of the Moon is Illuminated
Feb 26
Waning Crescent
Mar 1
New
Mar 8
First Quarter
Mar 16
Full
Mar 23
Last Quarter

Hourly Weather History & Observations

Time (CST) Temp. Windchill Dew Point Humidity Pressure Visibility Wind Dir Wind Speed Gust Speed Precip Events Conditions
12:15 AM 32.0 °F 22.1 °F 15.8 °F 51% 30.23 in 10.0 mi North 13.8 mph 18.4 mph N/A   Overcast
12:35 AM 32.0 °F 20.8 °F 6.8 °F 35% 30.24 in 10.0 mi North 17.3 mph 20.7 mph N/A   Overcast
12:55 AM 30.2 °F 19.3 °F 1.4 °F 29% 30.24 in 10.0 mi North 15.0 mph 24.2 mph N/A   Overcast
1:15 AM 30.2 °F 18.5 °F 14.0 °F 51% 30.25 in 10.0 mi North 17.3 mph 26.5 mph N/A   Overcast
1:35 AM 30.2 °F 18.5 °F 12.2 °F 47% 30.26 in 10.0 mi North 17.3 mph 26.5 mph N/A   Overcast
1:55 AM 30.2 °F 17.4 °F 12.2 °F 47% 30.27 in 10.0 mi North 20.7 mph - N/A   Overcast
2:15 AM 28.4 °F 15.1 °F 12.2 °F 51% 30.28 in 10.0 mi North 20.7 mph - N/A   Overcast
2:35 AM 28.4 °F 17.0 °F 12.2 °F 51% 30.29 in 10.0 mi North 15.0 mph 21.9 mph N/A   Overcast
2:55 AM 28.4 °F 17.5 °F 12.2 °F 51% 30.29 in 10.0 mi North 13.8 mph - N/A   Overcast
3:15 AM 28.4 °F 17.0 °F 12.2 °F 51% 30.29 in 10.0 mi North 15.0 mph - N/A   Overcast
3:35 AM 28.4 °F 17.5 °F 12.2 °F 51% 30.29 in 10.0 mi North 13.8 mph - N/A   Mostly Cloudy
3:55 AM 26.6 °F 15.2 °F 12.2 °F 55% 30.28 in 10.0 mi North 13.8 mph 25.3 mph N/A   Partly Cloudy
4:15 AM 26.6 °F 14.7 °F 12.2 °F 55% 30.27 in 10.0 mi North 15.0 mph 18.4 mph N/A   Clear
4:35 AM 26.6 °F 14.7 °F 10.4 °F 51% 30.27 in 10.0 mi North 15.0 mph - N/A   Clear
4:55 AM 24.8 °F 12.4 °F 10.4 °F 54% 30.27 in 10.0 mi North 15.0 mph - N/A   Clear
5:15 AM 24.8 °F 11.5 °F 10.4 °F 54% 30.28 in 10.0 mi North 17.3 mph - N/A   Clear
5:35 AM 24.8 °F 11.5 °F 10.4 °F 54% 30.28 in 10.0 mi North 17.3 mph 21.9 mph N/A   Clear
5:55 AM 24.8 °F 11.9 °F 10.4 °F 54% 30.28 in 10.0 mi North 16.1 mph - N/A   Clear
6:15 AM 23.0 °F 9.2 °F 8.6 °F 54% 30.28 in 10.0 mi North 17.3 mph - N/A   Clear
6:35 AM 23.0 °F 8.3 °F 8.6 °F 54% 30.30 in 10.0 mi North 19.6 mph - N/A   Clear
6:55 AM 23.0 °F 9.2 °F 8.6 °F 54% 30.30 in 10.0 mi North 17.3 mph - N/A   Mostly Cloudy
7:15 AM 23.0 °F 10.1 °F 8.6 °F 54% 30.30 in 10.0 mi NNW 15.0 mph - N/A   Mostly Cloudy
7:35 AM 23.0 °F 8.7 °F 8.6 °F 54% 30.30 in 10.0 mi North 18.4 mph - N/A   Partly Cloudy
7:55 AM 23.0 °F 9.6 °F 8.6 °F 54% 30.30 in 10.0 mi NNW 16.1 mph - N/A   Mostly Cloudy
8:15 AM 23.0 °F 9.2 °F 8.6 °F 54% 30.30 in 10.0 mi NNW 17.3 mph 23.0 mph N/A   Mostly Cloudy
8:35 AM 23.0 °F 9.6 °F 8.6 °F 54% 30.31 in 10.0 mi NNW 16.1 mph 20.7 mph N/A   Scattered Clouds
8:55 AM 23.0 °F 9.2 °F 8.6 °F 54% 30.31 in 10.0 mi North 17.3 mph - N/A   Partly Cloudy
9:15 AM 24.8 °F 12.4 °F 8.6 °F 50% 30.32 in 10.0 mi NNW 15.0 mph - N/A   Clear
9:35 AM 24.8 °F 14.0 °F 6.8 °F 46% 30.31 in 8.0 mi North 11.5 mph 19.6 mph N/A   Clear
9:55 AM 24.8 °F 14.6 °F 6.8 °F 46% 30.31 in 10.0 mi NNE 10.4 mph 16.1 mph N/A   Clear
10:15 AM 24.8 °F 12.9 °F 6.8 °F 46% 30.31 in 10.0 mi North 13.8 mph 19.6 mph N/A   Clear
10:35 AM 26.6 °F 16.8 °F 6.8 °F 43% 30.31 in 10.0 mi North 10.4 mph 16.1 mph N/A   Clear
10:55 AM 26.6 °F 16.2 °F 6.8 °F 43% 30.30 in 9.0 mi North 11.5 mph - N/A   Clear
11:15 AM 26.6 °F 19.1 °F 6.8 °F 43% 30.28 in 10.0 mi North 6.9 mph - N/A   Clear
11:35 AM 28.4 °F 20.4 °F 6.8 °F 40% 30.28 in 8.0 mi NNE 8.1 mph - N/A   Clear
11:55 AM 28.4 °F 20.4 °F 6.8 °F 40% 30.28 in 10.0 mi North 8.1 mph - N/A   Clear
12:15 PM 28.4 °F 18.5 °F 6.8 °F 40% 30.26 in 10.0 mi NNW 11.5 mph - N/A   Clear
12:35 PM 30.2 °F 25.4 °F 6.8 °F 37% 30.24 in 10.0 mi North 4.6 mph - N/A   Clear
12:55 PM 30.2 °F 25.4 °F 3.2 °F 32% 30.23 in 10.0 mi North 4.6 mph - N/A   Clear
1:15 PM 32.0 °F 24.8 °F 6.8 °F 35% 30.20 in 10.0 mi NNW 8.1 mph - N/A   Clear
1:35 PM 33.8 °F 24.3 °F 5.0 °F 30% 30.20 in 10.0 mi NW 13.8 mph 19.6 mph N/A   Clear
1:55 PM 33.8 °F 28.6 °F 3.2 °F 28% 30.19 in 10.0 mi NNW 5.8 mph - N/A   Clear
2:15 PM 33.8 °F 24.8 °F 5.0 °F 30% 30.17 in 10.0 mi NNW 12.7 mph - N/A   Clear
2:35 PM 33.8 °F 27.0 °F 3.2 °F 28% 30.16 in 10.0 mi North 8.1 mph - N/A   Clear
2:55 PM 35.6 °F 29.2 °F 3.2 °F 26% 30.15 in 10.0 mi NNW 8.1 mph - N/A   Clear
3:15 PM 35.6 °F 30.7 °F 3.2 °F 26% 30.14 in 10.0 mi WNW 5.8 mph - N/A   Clear
3:35 PM 35.6 °F 30.7 °F 3.2 °F 26% 30.13 in 10.0 mi NW 5.8 mph - N/A   Clear
3:55 PM 35.6 °F 28.0 °F 3.2 °F 26% 30.12 in 10.0 mi WNW 10.4 mph - N/A   Clear
4:15 PM 35.6 °F 29.2 °F 3.2 °F 26% 30.11 in 10.0 mi NW 8.1 mph - N/A   Clear
4:35 PM 35.6 °F 29.2 °F 3.2 °F 26% 30.11 in 10.0 mi WNW 8.1 mph 16.1 mph N/A   Clear
4:55 PM 35.6 °F 28.6 °F 1.4 °F 24% 30.10 in 10.0 mi WNW 9.2 mph - N/A   Clear
5:15 PM 35.6 °F 28.6 °F 1.4 °F 24% 30.09 in 10.0 mi NW 9.2 mph - N/A   Clear
5:35 PM 33.8 °F 26.4 °F 1.4 °F 25% 30.09 in 10.0 mi WNW 9.2 mph - N/A   Clear
5:55 PM 32.0 °F 25.6 °F 5.0 °F 32% 30.09 in 10.0 mi NW 6.9 mph - N/A   Clear
6:15 PM 30.2 °F 24.3 °F - N/A% 30.08 in 10.0 mi NW 5.8 mph - N/A   Clear
6:35 PM 30.2 °F 25.4 °F 8.6 °F 40% 30.09 in 10.0 mi WNW 4.6 mph - N/A   Clear
6:55 PM 30.2 °F 24.3 °F 3.2 °F 32% 30.09 in 10.0 mi WNW 5.8 mph - N/A   Clear
7:15 PM 30.2 °F 24.3 °F 3.2 °F 32% 30.09 in 10.0 mi West 5.8 mph - N/A   Clear
7:35 PM 30.2 °F 25.4 °F 3.2 °F 32% 30.08 in 10.0 mi West 4.6 mph - N/A   Clear
7:55 PM 30.2 °F 25.4 °F 3.2 °F 32% 30.08 in 10.0 mi West 4.6 mph - N/A   Clear
8:15 PM 30.2 °F 26.7 °F 3.2 °F 32% 30.08 in 10.0 mi WSW 3.5 mph - N/A   Clear
8:35 PM 28.4 °F 23.3 °F 8.6 °F 43% 30.10 in 10.0 mi WSW 4.6 mph - N/A   Clear
8:55 PM 28.4 °F 22.2 °F 3.2 °F 34% 30.09 in 10.0 mi West 5.8 mph - N/A   Clear
9:15 PM 28.4 °F 22.2 °F 5.0 °F 37% 30.09 in 10.0 mi WSW 5.8 mph - N/A   Clear
9:55 PM 28.4 °F 21.2 °F 5.0 °F 37% 30.09 in 10.0 mi WSW 6.9 mph - N/A   Clear
10:15 PM 26.6 °F 19.1 °F 6.8 °F 43% 30.09 in 10.0 mi WSW 6.9 mph - N/A   Clear
10:35 PM 26.6 °F 20.0 °F 6.8 °F 43% 30.08 in 10.0 mi WSW 5.8 mph - N/A   Clear
10:55 PM 26.6 °F 20.0 °F 6.8 °F 43% 30.08 in 10.0 mi West 5.8 mph - N/A   Clear
11:15 PM 26.6 °F 20.0 °F 6.8 °F 43% 30.08 in 10.0 mi WSW 5.8 mph - N/A   Clear
11:35 PM 26.6 °F 20.0 °F 6.8 °F 43% 30.08 in 10.0 mi WSW 5.8 mph - N/A   Clear
11:55 PM 24.8 °F 17.9 °F 6.8 °F 46% 30.08 in 10.0 mi WSW 5.8 mph - N/A   Clear